Time;durP1;ratioP1;P1;durP2;ratioP2;P2;SDS_P1;SDS_P2;PMS_P1;PMS_P2;Temp;Humidity;BMP_temperature;BMP_pressure;BME280_temperature;BME280_humidity;BME280_pressure;Samples;Min_cycle;Max_cycle;Signal;HPM_P1;HPM_P2
2022/04/24 00:02:22;;;;;;;2.22;1.92;;;;;;;22.15;30.49;99864.44;5054442;28;20025;-67
2022/04/24 00:04:48;;;;;;;3.38;2.33;;;;;;;22.13;30.29;99856.50;5054114;28;20017;-68
2022/04/24 00:07:13;;;;;;;3.40;2.20;;;;;;;22.11;30.58;99864.03;5053962;28;20068;-67
2022/04/24 00:09:38;;;;;;;3.22;2.33;;;;;;;22.08;30.32;99853.63;5053823;28;20589;-67
2022/04/24 00:12:06;;;;;;;3.67;2.08;;;;;;;22.04;30.90;99847.78;5054381;28;20036;-66
2022/04/24 00:14:31;;;;;;;3.97;2.10;;;;;;;22.03;30.65;99845.25;5054272;28;20021;-68
2022/04/24 00:16:57;;;;;;;3.25;2.25;;;;;;;22.00;30.39;99849.28;5054021;28;20377;-67
2022/04/24 00:19:23;;;;;;;2.75;2.10;;;;;;;21.97;29.86;99840.72;5054443;28;20025;-66
2022/04/24 00:21:48;;;;;;;3.60;2.08;;;;;;;21.92;30.79;99844.13;5053687;28;20386;-67
2022/04/24 00:24:14;;;;;;;7.50;2.70;;;;;;;21.88;30.82;99842.09;5053904;28;20051;-67
2022/04/24 00:26:39;;;;;;;2.58;2.30;;;;;;;21.83;30.70;99837.25;5053653;28;20033;-68
2022/04/24 00:29:05;;;;;;;2.65;1.75;;;;;;;21.81;30.47;99841.28;5037439;28;20041;-67
2022/04/24 00:31:30;;;;;;;4.68;1.90;;;;;;;21.77;30.51;99834.63;5039909;28;20044;-66
2022/04/24 00:33:56;;;;;;;2.38;1.98;;;;;;;21.73;30.99;99838.84;5057387;28;20387;-66
2022/04/24 00:36:21;;;;;;;5.90;2.30;;;;;;;21.70;31.18;99833.84;5057286;28;20095;-67
2022/04/24 00:38:47;;;;;;;2.72;2.00;;;;;;;21.66;30.15;99846.28;5057606;28;20028;-67
2022/04/24 00:41:12;;;;;;;4.50;2.50;;;;;;;21.61;30.93;99841.47;5057827;28;20023;-66
2022/04/24 00:43:37;;;;;;;2.80;2.40;;;;;;;21.58;30.33;99838.38;5057366;28;20048;-67
2022/04/24 00:46:44;;;;;;;4.68;2.20;;;;;;;21.53;30.58;99844.50;5057466;28;20107;-67
2022/04/24 00:49:11;;;;;;;3.08;1.90;;;;;;;21.47;30.82;99846.22;5036909;28;20064;-67
2022/04/24 00:51:38;;;;;;;3.95;2.03;;;;;;;21.43;30.63;99844.19;5057241;28;20104;-67
2022/04/24 00:54:09;;;;;;;2.42;2.08;;;;;;;21.39;30.38;99838.34;5057318;28;20025;-66
2022/04/24 00:56:35;;;;;;;5.35;1.90;;;;;;;21.35;30.69;99847.19;5057166;28;20412;-67
2022/04/24 00:59:03;;;;;;;4.25;1.80;;;;;;;21.30;30.53;99842.38;5057457;28;20029;-66
2022/04/24 01:01:28;;;;;;;3.33;1.75;;;;;;;21.26;30.70;99843.91;5057197;28;20020;-66
2022/04/24 01:03:55;;;;;;;2.65;1.77;;;;;;;21.20;31.36;99842.06;5056003;28;20021;-67
2022/04/24 01:06:21;;;;;;;2.20;1.83;;;;;;;21.13;30.91;99843.19;5057107;28;20056;-67
2022/04/24 01:08:46;;;;;;;2.72;2.10;;;;;;;21.03;31.02;99843.63;5057023;28;20036;-67
2022/04/24 01:11:12;;;;;;;2.85;1.83;;;;;;;20.93;30.67;99848.75;5056818;28;20029;-67
2022/04/24 01:13:37;;;;;;;2.20;2.00;;;;;;;20.82;30.68;99838.56;5056680;28;20029;-66
2022/04/24 01:16:02;;;;;;;2.40;1.90;;;;;;;20.72;30.82;99840.91;5056168;28;20156;-67
2022/04/24 01:18:29;;;;;;;2.85;2.03;;;;;;;20.64;31.72;99833.84;5056506;28;20029;-67
2022/04/24 01:20:54;;;;;;;2.90;2.28;;;;;;;20.57;31.13;99833.06;5039144;28;20029;-67
2022/04/24 01:23:19;;;;;;;2.45;1.90;;;;;;;20.51;31.65;99833.09;5056921;28;20040;-66
2022/04/24 01:25:45;;;;;;;1.88;1.63;;;;;;;20.45;31.18;99833.97;5056545;28;20604;-67
2022/04/24 01:28:10;;;;;;;3.33;2.33;;;;;;;20.39;31.78;99829.38;5056186;28;20036;-67
2022/04/24 01:30:36;;;;;;;2.55;1.80;;;;;;;20.37;31.86;99836.94;5057662;28;20494;-67
2022/04/24 01:33:03;;;;;;;2.70;1.95;;;;;;;20.33;31.72;99845.53;5038627;28;20029;-67
2022/04/24 01:35:28;;;;;;;2.63;2.13;;;;;;;20.30;31.84;99837.78;5056335;28;20027;-67
2022/04/24 01:37:56;;;;;;;5.60;2.15;;;;;;;20.29;32.22;99836.16;5038547;28;20104;-67
2022/04/24 01:40:22;;;;;;;3.05;2.35;;;;;;;20.29;32.03;99836.16;5055949;28;20025;-67
2022/04/24 01:42:47;;;;;;;3.10;1.85;;;;;;;20.32;31.97;99832.16;5056803;28;20031;-67
2022/04/24 01:45:12;;;;;;;3.38;2.10;;;;;;;20.33;32.20;99831.94;5056202;28;20386;-67
2022/04/24 01:47:38;;;;;;;2.72;1.98;;;;;;;20.37;31.99;99835.06;5056555;28;20021;-67
2022/04/24 01:50:03;;;;;;;2.83;2.30;;;;;;;20.40;31.88;99828.34;5056124;28;20021;-67
2022/04/24 01:52:29;;;;;;;2.05;1.67;;;;;;;20.44;32.31;99829.56;5055448;28;20029;-68
2022/04/24 01:54:54;;;;;;;3.05;2.13;;;;;;;20.47;32.58;99837.28;5037971;28;20049;-67
2022/04/24 01:57:19;;;;;;;3.25;2.10;;;;;;;20.51;32.05;99835.81;5038171;28;20036;-66
2022/04/24 01:59:45;;;;;;;3.58;2.40;;;;;;;20.49;32.38;99833.28;5055892;28;20112;-67
2022/04/24 02:02:10;;;;;;;4.70;2.10;;;;;;;20.52;32.06;99832.06;5055883;28;20029;-66
2022/04/24 02:04:35;;;;;;;5.22;2.47;;;;;;;20.53;31.92;99831.81;5055556;28;20040;-67
2022/04/24 02:07:01;;;;;;;3.67;2.55;;;;;;;20.56;31.82;99833.28;5055736;28;20029;-67
2022/04/24 02:09:26;;;;;;;2.53;1.45;;;;;;;20.57;32.36;99838.50;5055834;28;20079;-66
2022/04/24 02:11:51;;;;;;;5.00;2.13;;;;;;;20.58;32.38;99829.28;5056192;28;20024;-66
2022/04/24 02:14:17;;;;;;;3.15;2.30;;;;;;;20.57;31.78;99832.22;5055956;28;20186;-67
2022/04/24 02:16:42;;;;;;;2.88;1.92;;;;;;;20.60;31.86;99835.31;5055691;28;20021;-67
2022/04/24 02:19:07;;;;;;;3.53;2.63;;;;;;;20.60;32.13;99829.88;5055502;28;20028;-67
2022/04/24 02:21:33;;;;;;;4.18;2.20;;;;;;;20.60;31.72;99834.50;5055836;28;20089;-67
2022/04/24 02:23:58;;;;;;;3.83;2.15;;;;;;;20.58;31.88;99833.88;5055371;28;20040;-67
2022/04/24 02:26:23;;;;;;;6.85;2.55;;;;;;;20.57;31.85;99837.66;5036748;28;20488;-66
2022/04/24 02:28:49;;;;;;;2.72;2.25;;;;;;;20.54;31.49;99829.94;5055037;28;20170;-66
2022/04/24 02:31:14;;;;;;;2.42;1.70;;;;;;;20.52;31.93;99818.44;5055021;28;20075;-67
2022/04/24 02:33:39;;;;;;;4.43;2.40;;;;;;;20.48;32.06;99823.47;5055412;28;20025;-65
2022/04/24 02:36:05;;;;;;;6.25;2.33;;;;;;;20.47;31.96;99827.25;5055117;28;20056;-67
2022/04/24 02:38:30;;;;;;;5.22;2.13;;;;;;;20.44;32.03;99826.84;5054997;28;20108;-67
2022/04/24 02:40:56;;;;;;;2.75;2.20;;;;;;;20.42;32.23;99824.34;5055387;28;20397;-67
2022/04/24 02:43:21;;;;;;;5.25;2.85;;;;;;;20.40;32.17;99837.34;5055270;28;20451;-66
2022/04/24 02:45:47;;;;;;;7.05;2.90;;;;;;;20.36;32.09;99836.09;5055132;28;20029;-67
2022/04/24 02:48:13;;;;;;;4.78;2.50;;;;;;;20.31;32.27;99836.75;5055460;28;20474;-67
2022/04/24 02:50:39;;;;;;;3.10;2.40;;;;;;;20.28;32.26;99834.47;5054677;28;20479;-67
2022/04/24 02:53:05;;;;;;;4.22;2.60;;;;;;;20.26;32.63;99836.56;5055360;28;20021;-66
2022/04/24 02:55:31;;;;;;;3.70;2.13;;;;;;;20.24;32.40;99838.66;5054759;28;20384;-66
2022/04/24 02:57:56;;;;;;;8.50;2.50;;;;;;;20.21;32.24;99838.25;5054512;28;20036;-67
2022/04/24 03:00:25;;;;;;;3.58;2.50;;;;;;;20.18;32.14;99844.91;5054924;28;20052;-67
2022/04/24 03:02:52;;;;;;;4.25;2.75;;;;;;;20.15;32.46;99839.94;5054290;28;20020;-67
2022/04/24 03:05:19;;;;;;;4.10;2.60;;;;;;;20.13;32.21;99836.56;5054461;28;20442;-67
2022/04/24 03:07:45;;;;;;;4.40;2.67;;;;;;;20.10;32.46;99837.00;5054530;28;20113;-67
2022/04/24 03:10:11;;;;;;;6.47;3.30;;;;;;;20.07;32.33;99836.63;5054892;28;20056;-66
2022/04/24 03:12:37;;;;;;;4.53;2.38;;;;;;;20.02;32.27;99841.84;5054684;28;20033;-67
2022/04/24 03:15:07;;;;;;;3.13;2.65;;;;;;;19.96;32.20;99840.81;5054634;28;20364;-67
2022/04/24 03:17:32;;;;;;;3.50;2.70;;;;;;;19.90;32.69;99841.69;5054769;28;20021;-66
2022/04/24 03:19:58;;;;;;;4.32;2.80;;;;;;;19.87;32.56;99841.28;5054589;28;20046;-67
2022/04/24 03:22:25;;;;;;;6.25;2.75;;;;;;;19.83;32.10;99835.44;5054248;28;20029;-68
2022/04/24 03:24:51;;;;;;;5.20;2.60;;;;;;;19.81;32.60;99832.09;5054565;28;20166;-67
2022/04/24 03:27:16;;;;;;;5.28;2.95;;;;;;;19.77;32.33;99839.81;5054189;28;20530;-67
2022/04/24 03:29:41;;;;;;;4.50;2.83;;;;;;;19.75;32.27;99838.38;5053866;28;20126;-67
2022/04/24 03:32:07;;;;;;;2.90;2.60;;;;;;;19.73;32.98;99840.47;5054377;28;20091;-67
2022/04/24 03:34:32;;;;;;;3.60;2.97;;;;;;;19.69;32.80;99836.50;5054077;28;20025;-67
2022/04/24 03:36:58;;;;;;;4.30;2.80;;;;;;;19.66;32.22;99845.06;5053994;28;20162;-67
2022/04/24 03:39:23;;;;;;;4.50;3.00;;;;;;;19.61;32.61;99842.16;5053888;28;20028;-68
2022/04/24 03:41:48;;;;;;;3.47;2.78;;;;;;;19.56;32.69;99831.09;5052527;28;20029;-67
2022/04/24 03:44:14;;;;;;;8.02;3.08;;;;;;;19.54;32.44;99835.91;5054110;28;20021;-67
2022/04/24 03:46:39;;;;;;;4.40;3.13;;;;;;;19.48;32.96;99840.31;5054069;28;20029;-67
2022/04/24 03:49:04;;;;;;;6.30;2.78;;;;;;;19.46;32.33;99842.38;5054145;28;20074;-67
2022/04/24 03:51:30;;;;;;;5.13;3.22;;;;;;;19.44;32.42;99836.34;5053944;28;20056;-67
2022/04/24 03:53:55;;;;;;;4.47;3.42;;;;;;;19.40;33.43;99845.94;5054360;28;20155;-66
2022/04/24 03:56:20;;;;;;;5.78;3.00;;;;;;;19.37;33.07;99840.94;5054803;28;20021;-67
2022/04/24 03:58:46;;;;;;;6.35;3.80;;;;;;;19.34;32.89;99829.63;5053302;28;20123;-67
2022/04/24 04:01:12;;;;;;;4.60;2.92;;;;;;;19.32;32.95;99837.16;5054414;28;20025;-67
2022/04/24 04:03:37;;;;;;;4.25;3.00;;;;;;;19.29;32.39;99843.81;5056126;28;20386;-67
2022/04/24 04:06:03;;;;;;;8.70;3.00;;;;;;;19.26;32.64;99838.00;5058535;28;20021;-68
2022/04/24 04:08:28;;;;;;;4.95;3.38;;;;;;;19.25;32.79;99836.31;5058217;28;20032;-68
2022/04/24 04:10:54;;;;;;;3.63;3.10;;;;;;;19.19;32.60;99843.41;5058474;28;20063;-68
2022/04/24 04:13:19;;;;;;;6.18;3.38;;;;;;;19.14;32.72;99835.91;5058244;28;20513;-66
2022/04/24 04:15:45;;;;;;;5.55;3.60;;;;;;;19.12;33.34;99845.31;5057567;28;20470;-66
2022/04/24 04:18:10;;;;;;;5.43;3.08;;;;;;;19.08;32.61;99846.75;5057501;28;20029;-67
2022/04/24 04:20:35;;;;;;;4.22;3.00;;;;;;;19.05;33.28;99850.72;5057866;28;20138;-67
2022/04/24 04:23:03;;;;;;;5.32;3.38;;;;;;;19.03;33.00;99850.09;5058152;28;20029;-67
2022/04/24 04:25:28;;;;;;;4.88;3.15;;;;;;;19.00;32.79;99842.38;5057749;28;20432;-67
2022/04/24 04:27:53;;;;;;;5.15;3.20;;;;;;;18.99;32.81;99851.56;5057468;28;20020;-67
2022/04/24 04:30:19;;;;;;;5.18;3.70;;;;;;;18.97;33.10;99850.94;5057393;28;20068;-67
2022/04/24 04:32:45;;;;;;;4.75;3.67;;;;;;;18.97;32.53;99855.53;5057387;28;20028;-68
2022/04/24 04:35:11;;;;;;;4.40;3.25;;;;;;;18.94;32.94;99862.19;5056132;28;20021;-67
2022/04/24 04:37:37;;;;;;;4.22;3.15;;;;;;;18.92;33.29;99864.28;5057327;28;20607;-66
2022/04/24 04:40:07;;;;;;;6.40;3.42;;;;;;;18.91;32.91;99870.75;5057125;28;20021;-67
2022/04/24 04:42:32;;;;;;;4.55;3.28;;;;;;;18.92;33.33;99874.31;5057229;28;20486;-66
2022/04/24 04:45:00;;;;;;;3.33;2.97;;;;;;;18.88;33.10;99868.44;5056869;28;20025;-66
2022/04/24 04:47:27;;;;;;;3.90;3.20;;;;;;;18.88;33.58;99879.31;5057397;28;20021;-67
2022/04/24 04:49:53;;;;;;;4.82;3.33;;;;;;;18.88;33.48;99881.19;5057484;28;20052;-66
2022/04/24 04:52:18;;;;;;;5.65;4.20;;;;;;;18.87;33.75;99885.75;5056655;28;20028;-68
2022/04/24 04:54:43;;;;;;;5.97;3.30;;;;;;;18.87;33.48;99888.47;5056735;28;20021;-68
2022/04/24 04:57:09;;;;;;;6.82;4.20;;;;;;;18.89;33.67;99891.00;5056996;28;20029;-66
2022/04/24 04:59:34;;;;;;;6.07;3.70;;;;;;;18.91;33.37;99894.34;5057167;28;20521;-67
2022/04/24 05:01:59;;;;;;;4.75;3.28;;;;;;;18.93;33.18;99895.81;5057283;28;20382;-67
2022/04/24 05:04:25;;;;;;;3.40;2.88;;;;;;;18.90;33.43;99892.69;5057282;28;20394;-67
2022/04/24 05:06:50;;;;;;;7.75;3.45;;;;;;;18.90;33.90;99898.94;5056899;28;20501;-67
2022/04/24 05:09:16;;;;;;;8.38;3.60;;;;;;;18.87;33.15;99893.91;5055656;28;20021;-67
2022/04/24 05:11:42;;;;;;;4.57;3.38;;;;;;;18.86;33.37;99902.25;5055336;28;20025;-67
2022/04/24 05:14:07;;;;;;;3.55;3.00;;;;;;;18.86;32.65;99908.53;5057060;28;20032;-67
2022/04/24 05:16:32;;;;;;;4.40;3.20;;;;;;;18.87;33.05;99915.63;5056468;28;20383;-67
2022/04/24 05:18:58;;;;;;;4.03;3.50;;;;;;;18.91;32.83;99916.91;5056750;28;20043;-67
2022/04/24 05:21:25;;;;;;;5.10;3.65;;;;;;;18.99;33.45;99919.41;5056878;28;20032;-67
2022/04/24 05:23:52;;;;;;;6.88;3.50;;;;;;;19.08;33.80;99912.75;5056859;28;20028;-67
2022/04/24 05:26:17;;;;;;;3.30;2.78;;;;;;;19.19;32.95;99917.56;5056902;28;20676;-67
2022/04/24 05:28:43;;;;;;;4.05;3.17;;;;;;;19.29;33.50;99919.06;5055726;28;20084;-67
2022/04/24 05:31:08;;;;;;;6.75;4.05;;;;;;;19.38;32.86;99915.06;5058820;28;20048;-67
2022/04/24 05:33:34;;;;;;;5.43;3.53;;;;;;;19.50;32.89;99921.59;5059462;28;20070;-66
2022/04/24 05:35:59;;;;;;;4.88;3.50;;;;;;;19.61;33.51;99926.41;5056642;28;20029;-66
2022/04/24 05:38:25;;;;;;;5.47;3.85;;;;;;;19.74;32.86;99931.81;5057986;28;20025;-67
2022/04/24 05:40:50;;;;;;;5.85;3.58;;;;;;;19.85;33.34;99928.47;5056476;28;20072;-66
2022/04/24 05:43:16;;;;;;;6.63;3.92;;;;;;;19.97;32.77;99934.94;5056136;28;20529;-67
2022/04/24 05:45:41;;;;;;;5.90;4.32;;;;;;;20.07;33.05;99934.50;5055890;28;20542;-67
2022/04/24 05:48:07;;;;;;;5.50;3.78;;;;;;;20.17;32.91;99935.72;5056885;28;20391;-67
2022/04/24 05:50:33;;;;;;;5.80;4.20;;;;;;;20.25;32.91;99931.97;5055902;28;20386;-68
2022/04/24 05:52:59;;;;;;;6.18;4.43;;;;;;;20.24;32.58;99935.69;5054919;28;20152;-67
2022/04/24 05:55:25;;;;;;;5.45;3.38;;;;;;;20.22;32.68;99938.66;5055842;28;20071;-66
2022/04/24 05:57:50;;;;;;;5.47;3.78;;;;;;;20.19;32.73;99930.91;5055721;28;20025;-67
2022/04/24 06:00:17;;;;;;;7.38;4.32;;;;;;;20.21;33.05;99942.41;5056178;28;20032;-67
2022/04/24 06:02:43;;;;;;;6.35;4.15;;;;;;;20.31;32.29;99942.00;5056152;28;20090;-67
2022/04/24 06:05:10;;;;;;;10.05;4.03;;;;;;;20.31;32.75;99937.41;5055582;28;20020;-67
2022/04/24 06:07:36;;;;;;;6.78;3.63;;;;;;;20.29;32.49;99939.50;5055737;28;20021;-66
2022/04/24 06:10:01;;;;;;;7.00;4.25;;;;;;;20.26;32.87;99950.81;5055785;28;20029;-67
2022/04/24 06:12:26;;;;;;;5.82;4.65;;;;;;;20.17;33.52;99938.44;5054442;28;20437;-67
2022/04/24 06:14:52;;;;;;;9.13;4.45;;;;;;;20.13;32.90;99953.50;5055812;28;20103;-68
2022/04/24 06:17:17;;;;;;;4.60;3.47;;;;;;;20.19;33.03;99946.38;5056055;28;20392;-67
2022/04/24 06:19:42;;;;;;;7.20;3.78;;;;;;;20.42;32.45;99941.34;5054389;28;20025;-68
2022/04/24 06:22:08;;;;;;;5.47;4.05;;;;;;;20.51;32.44;99950.94;5055689;28;20478;-68
2022/04/24 06:24:33;;;;;;;5.88;4.10;;;;;;;20.72;32.41;99947.06;5054293;28;20028;-67
2022/04/24 06:26:59;;;;;;;6.97;4.63;;;;;;;20.94;32.84;99953.06;5055596;28;20029;-66
2022/04/24 06:29:24;;;;;;;5.95;4.53;;;;;;;21.15;32.28;99942.69;5054403;28;20049;-66
2022/04/24 06:31:49;;;;;;;5.78;4.18;;;;;;;21.32;32.04;99941.09;5063153;28;20028;-66
2022/04/24 06:34:15;;;;;;;5.75;4.20;;;;;;;21.50;32.23;99953.16;5055416;28;20052;-66
2022/04/24 06:36:40;;;;;;;6.97;4.13;;;;;;;21.67;32.65;99938.72;5054409;28;20028;-66
2022/04/24 06:39:06;;;;;;;7.80;4.05;;;;;;;21.83;31.55;99946.34;5054066;28;20021;-66
2022/04/24 06:41:31;;;;;;;7.50;4.38;;;;;;;21.95;31.93;99946.47;5054916;28;20051;-66
2022/04/24 06:43:57;;;;;;;5.57;4.03;;;;;;;22.10;31.88;99946.97;5055153;28;20033;-66
2022/04/24 06:46:23;;;;;;;7.72;4.63;;;;;;;22.26;31.62;99943.63;5055160;28;20044;-65
2022/04/24 06:48:49;;;;;;;6.22;4.30;;;;;;;22.42;31.92;99937.56;5054549;28;20025;-66
2022/04/24 06:51:14;;;;;;;7.38;4.13;;;;;;;22.60;30.77;99940.31;5054892;28;20020;-66
2022/04/24 06:53:40;;;;;;;9.23;5.13;;;;;;;22.78;31.05;99941.38;5055023;28;20474;-66
2022/04/24 06:56:05;;;;;;;7.97;4.07;;;;;;;22.94;30.63;99943.47;5054984;28;20479;-66
2022/04/24 06:58:30;;;;;;;5.30;4.43;;;;;;;23.10;31.21;99951.84;5054655;28;20021;-66
2022/04/24 07:00:56;;;;;;;7.07;4.65;;;;;;;23.25;31.18;99954.16;5054834;28;20087;-65
2022/04/24 07:03:22;;;;;;;7.72;4.72;;;;;;;23.46;31.13;99950.06;5054737;28;20071;-65
2022/04/24 07:05:48;;;;;;;6.43;4.40;;;;;;;23.60;30.98;99952.38;5054778;28;20024;-66
2022/04/24 07:08:14;;;;;;;5.82;3.97;;;;;;;23.74;30.32;99945.63;5054686;28;20056;-66
2022/04/24 07:10:39;;;;;;;5.90;4.20;;;;;;;23.91;30.20;99940.28;5054520;28;20055;-67
2022/04/24 07:13:05;;;;;;;5.43;4.35;;;;;;;24.04;30.22;99941.94;5054260;28;20025;-66
2022/04/24 07:15:32;;;;;;;11.40;4.38;;;;;;;24.12;30.19;99949.84;5054606;28;20025;-66
2022/04/24 07:17:58;;;;;;;7.25;3.92;;;;;;;24.22;30.51;99950.06;5054493;28;20449;-65
2022/04/24 07:20:23;;;;;;;8.90;4.10;;;;;;;24.38;29.63;99938.38;5054327;28;20041;-66
2022/04/24 07:22:50;;;;;;;5.40;4.18;;;;;;;24.59;30.02;99950.59;5054109;28;20025;-66
2022/04/24 07:25:23;;;;;;;5.75;4.22;;;;;;;24.56;29.84;99951.09;5054237;28;20029;-66
2022/04/24 07:27:49;;;;;;;6.70;4.40;;;;;;;24.77;29.43;99962.22;5054565;28;20041;-66
2022/04/24 07:30:16;;;;;;;5.38;3.60;;;;;;;24.55;30.22;99957.63;5053846;28;20053;-66
2022/04/24 07:32:52;;;;;;;6.65;4.78;;;;;;;24.25;29.51;99957.78;5055489;28;20029;-66
2022/04/24 07:35:23;;;;;;;4.32;3.83;;;;;;;24.04;29.50;99967.38;5054217;28;20478;-65
2022/04/24 07:37:49;;;;;;;4.90;3.92;;;;;;;23.82;29.99;99960.84;5053787;28;20024;-67
2022/04/24 07:40:16;;;;;;;7.75;4.25;;;;;;;23.66;29.83;99962.38;5053767;28;20074;-65
2022/04/24 07:42:53;;;;;;;8.73;4.25;;;;;;;23.54;29.73;99966.97;5053124;28;20032;-65
2022/04/24 07:45:20;;;;;;;7.03;4.10;;;;;;;23.61;30.43;99970.47;5053911;28;20105;-66
2022/04/24 07:47:46;;;;;;;6.30;4.18;;;;;;;23.72;30.10;99961.44;5052455;28;20471;-66
2022/04/24 07:50:12;;;;;;;6.47;4.50;;;;;;;23.80;29.81;99963.00;5051050;28;20032;-65
2022/04/24 07:52:38;;;;;;;6.53;4.15;;;;;;;23.95;29.82;99965.28;5052770;28;20025;-65
2022/04/24 07:55:03;;;;;;;6.07;3.70;;;;;;;24.39;30.02;99961.94;5054004;28;20474;-66
2022/04/24 07:57:29;;;;;;;8.07;4.32;;;;;;;24.46;29.46;99973.59;5053201;28;20375;-66
2022/04/24 07:59:54;;;;;;;5.22;3.65;;;;;;;24.56;29.81;99967.50;5054221;28;20086;-66
2022/04/24 08:02:20;;;;;;;6.15;3.55;;;;;;;24.62;29.77;99963.81;5054354;28;20029;-66
2022/04/24 08:04:45;;;;;;;6.90;3.53;;;;;;;24.72;29.99;99974.97;5053374;28;20049;-66
2022/04/24 08:07:10;;;;;;;6.93;4.47;;;;;;;25.00;29.39;99968.72;5053479;28;20044;-65
2022/04/24 08:09:36;;;;;;;5.28;3.97;;;;;;;25.05;29.03;99977.03;5053810;28;20051;-66
2022/04/24 08:12:01;;;;;;;5.50;3.95;;;;;;;24.94;29.28;99975.16;5035749;28;20025;-65
2022/04/24 08:14:27;;;;;;;6.82;4.10;;;;;;;24.97;29.47;99969.22;5035935;28;20562;-66
2022/04/24 08:16:52;;;;;;;5.82;3.75;;;;;;;25.12;29.04;99973.09;5053264;28;20021;-66
2022/04/24 08:19:18;;;;;;;5.03;3.72;;;;;;;25.28;29.06;99975.03;5053324;28;20025;-65
2022/04/24 08:21:44;;;;;;;5.97;4.07;;;;;;;25.58;28.63;99977.53;5053680;28;20116;-66
2022/04/24 08:24:09;;;;;;;6.32;3.72;;;;;;;25.70;29.01;99975.56;5053251;28;20461;-66
2022/04/24 08:26:35;;;;;;;5.72;3.95;;;;;;;25.99;28.50;99985.34;5053143;28;20029;-65
2022/04/24 08:29:00;;;;;;;5.93;3.63;;;;;;;26.05;28.00;99981.63;5053097;28;20053;-65
2022/04/24 08:31:25;;;;;;;4.70;3.97;;;;;;;26.30;27.89;99983.13;5053641;28;20028;-66
2022/04/24 08:33:52;;;;;;;12.63;4.20;;;;;;;26.25;28.41;99983.88;5052801;28;20024;-65
2022/04/24 08:36:18;;;;;;;4.63;4.18;;;;;;;26.51;28.04;99987.81;5053500;28;20021;-65
2022/04/24 08:38:43;;;;;;;5.05;4.03;;;;;;;26.89;27.91;99978.72;5053254;28;20025;-65
2022/04/24 08:41:09;;;;;;;8.68;4.10;;;;;;;27.13;27.13;99980.94;5054121;28;20387;-65
2022/04/24 08:43:34;;;;;;;4.57;3.88;;;;;;;27.40;27.68;99980.13;5053101;28;20025;-66
2022/04/24 08:46:01;;;;;;;7.65;4.15;;;;;;;27.67;27.62;99976.28;5052905;28;20036;-66
2022/04/24 08:48:26;;;;;;;5.13;3.78;;;;;;;27.98;27.37;99977.38;5051775;28;20479;-65
2022/04/24 08:50:52;;;;;;;5.85;3.90;;;;;;;28.27;26.76;99977.88;5056280;28;20021;-68
2022/04/24 08:53:18;;;;;;;4.80;3.80;;;;;;;28.55;26.56;99979.44;5056613;28;20442;-65
2022/04/24 08:55:44;;;;;;;7.95;5.00;;;;;;;28.77;26.67;99980.13;5055823;28;20075;-67
2022/04/24 08:58:09;;;;;;;5.53;3.83;;;;;;;28.99;26.71;99974.41;5056831;28;20029;-65
2022/04/24 09:00:34;;;;;;;4.75;3.80;;;;;;;29.20;26.21;99976.94;5055453;28;20025;-66
2022/04/24 09:03:00;;;;;;;5.22;3.60;;;;;;;29.39;26.00;99975.41;5055951;28;20036;-66
2022/04/24 09:05:26;;;;;;;5.68;4.10;;;;;;;29.57;26.11;99967.66;5055961;28;20078;-65
2022/04/24 09:07:53;;;;;;;4.88;3.38;;;;;;;29.74;25.49;99973.75;5056003;28;20021;-65
2022/04/24 09:10:19;;;;;;;7.93;4.15;;;;;;;29.91;25.13;99979.88;5038214;28;20032;-65
2022/04/24 09:12:45;;;;;;;5.13;3.72;;;;;;;30.04;25.31;99973.78;5055785;28;20029;-66
2022/04/24 09:15:15;;;;;;;4.80;4.03;;;;;;;30.16;25.07;99977.09;5054563;28;20433;-66
2022/04/24 09:17:41;;;;;;;6.93;3.60;;;;;;;30.31;24.64;99968.78;5055964;28;20052;-66
2022/04/24 09:20:17;;;;;;;8.10;3.50;;;;;;;30.47;24.47;99972.34;5055728;28;20159;-69
2022/04/24 09:22:42;;;;;;;5.60;3.22;;;;;;;30.61;25.08;99970.66;5055543;28;20031;-66
2022/04/24 09:25:10;;;;;;;3.97;3.38;;;;;;;30.66;24.49;99965.09;5055599;28;20108;-65
2022/04/24 09:27:35;;;;;;;6.03;3.90;;;;;;;30.70;24.51;99966.22;5055687;28;20529;-65
2022/04/24 09:30:04;;;;;;;7.75;3.25;;;;;;;30.79;24.11;99960.94;5055404;28;20069;-66
2022/04/24 09:32:31;;;;;;;7.28;4.30;;;;;;;30.86;24.09;99958.66;5055109;28;20060;-66
2022/04/24 09:34:57;;;;;;;4.68;3.88;;;;;;;30.94;23.90;99955.34;5055483;28;20036;-64
2022/04/24 09:37:23;;;;;;;6.35;3.55;;;;;;;31.04;23.93;99950.59;5054186;28;20062;-66
2022/04/24 09:39:49;;;;;;;5.22;3.90;;;;;;;31.21;23.73;99952.16;5055422;28;20056;-66
2022/04/24 09:42:17;;;;;;;6.43;3.47;;;;;;;31.38;23.69;99953.41;5055310;28;20504;-66
2022/04/24 09:44:43;;;;;;;5.53;3.30;;;;;;;31.53;23.67;99945.03;5054114;28;20119;-66
2022/04/24 09:47:09;;;;;;;5.95;3.63;;;;;;;31.78;23.48;99944.00;5054124;28;20079;-65
2022/04/24 09:49:40;;;;;;;6.32;4.28;;;;;;;32.18;23.13;99948.38;5054339;28;20418;-65
2022/04/24 09:52:10;;;;;;;8.55;4.40;;;;;;;32.80;23.04;99945.44;5055301;28;20033;-66
2022/04/24 09:54:41;;;;;;;6.95;4.30;;;;;;;33.62;22.05;99950.72;5055315;28;20074;-66
2022/04/24 09:57:08;;;;;;;5.55;4.38;;;;;;;34.70;21.28;99947.41;5055162;28;20065;-66
2022/04/24 09:59:36;;;;;;;6.05;3.38;;;;;;;36.43;20.07;99970.06;5054452;28;20028;-66
2022/04/24 10:02:03;;;;;;;7.68;3.75;;;;;;;36.72;19.95;99956.38;5055592;28;20020;-66
2022/04/24 10:04:28;;;;;;;5.63;3.35;;;;;;;36.11;20.72;99946.91;5055265;28;20029;-65
2022/04/24 10:06:54;;;;;;;5.93;4.20;;;;;;;35.72;21.14;99948.72;5055392;28;20035;-66
2022/04/24 10:09:20;;;;;;;4.20;3.72;;;;;;;35.42;20.98;99947.50;5055308;28;20028;-66
2022/04/24 10:11:46;;;;;;;5.07;3.60;;;;;;;35.32;20.81;99948.53;5054215;28;20036;-65
2022/04/24 10:14:14;;;;;;;4.20;3.45;;;;;;;35.31;20.51;99944.13;5055029;28;20020;-65
2022/04/24 10:16:58;;;;;;;5.50;3.85;;;;;;;35.39;21.37;99953.69;5053822;28;20017;-66
2022/04/24 10:19:40;;;;;;;5.07;4.18;;;;;;;35.46;20.56;99951.28;5054719;28;20496;-67
2022/04/24 10:22:30;;;;;;;5.70;3.90;;;;;;;35.54;20.15;99948.56;5053845;28;20545;-66
2022/04/24 10:25:01;;;;;;;5.80;3.75;;;;;;;35.53;20.62;99951.69;5038964;28;20055;-66
2022/04/24 10:27:38;;;;;;;4.13;3.47;;;;;;;35.65;20.40;99965.91;5054707;28;20040;-65
2022/04/24 10:30:05;;;;;;;4.68;3.20;;;;;;;35.80;20.22;99957.16;5053362;28;20045;-66
2022/04/24 10:32:30;;;;;;;4.50;3.47;;;;;;;35.95;20.29;99956.78;5055033;28;20025;-65
2022/04/24 10:34:56;;;;;;;7.18;3.75;;;;;;;36.01;19.30;99952.72;5054767;28;20031;-66
2022/04/24 10:37:26;;;;;;;5.30;3.70;;;;;;;36.07;19.70;99951.47;5054592;28;20017;-66
2022/04/24 10:39:57;;;;;;;3.92;3.42;;;;;;;36.16;19.72;99955.13;5054294;28;20079;-66
2022/04/24 10:42:45;;;;;;;3.92;3.00;;;;;;;36.27;19.29;99954.88;5054681;28;20029;-66
2022/04/24 10:45:15;;;;;;;6.07;3.45;;;;;;;36.35;19.69;99952.09;5054343;28;20103;-66
2022/04/24 10:47:43;;;;;;;6.32;4.13;;;;;;;36.56;19.36;99957.97;5054262;28;20050;-66
2022/04/24 10:50:09;;;;;;;5.82;4.40;;;;;;;36.75;19.35;99958.53;5054620;28;20028;-66
2022/04/24 10:52:45;;;;;;;5.07;4.40;;;;;;;36.83;19.06;99956.91;5054462;28;20021;-65
2022/04/24 10:55:16;;;;;;;6.15;3.88;;;;;;;36.94;19.44;99961.88;5054379;28;20024;-65
2022/04/24 10:57:47;;;;;;;5.38;4.05;;;;;;;37.02;18.87;99966.69;5036436;28;20048;-66
2022/04/24 11:00:19;;;;;;;4.20;3.80;;;;;;;36.94;18.84;99963.84;5054322;28;20021;-66
2022/04/24 11:02:45;;;;;;;4.85;4.10;;;;;;;36.73;18.98;99961.66;5054646;28;20021;-64
2022/04/24 11:05:11;;;;;;;7.20;3.92;;;;;;;36.12;19.14;99956.94;5054651;28;20509;-66
2022/04/24 11:07:37;;;;;;;9.43;4.82;;;;;;;35.99;19.03;99963.34;5054281;28;20029;-66
2022/04/24 11:10:10;;;;;;;5.05;3.65;;;;;;;36.04;19.32;99963.25;5053998;28;20036;-66
2022/04/24 11:12:36;;;;;;;4.35;3.85;;;;;;;36.29;19.19;99952.56;5053486;28;20028;-66
2022/04/24 11:15:09;;;;;;;6.85;4.38;;;;;;;36.43;18.89;99953.31;5054247;28;20021;-66
2022/04/24 11:17:35;;;;;;;5.95;3.90;;;;;;;36.54;18.51;99954.69;5054044;28;20032;-65
2022/04/24 11:20:09;;;;;;;4.75;3.90;;;;;;;36.59;18.42;99951.75;5054082;28;20482;-65
2022/04/24 11:22:43;;;;;;;4.80;3.92;;;;;;;36.74;18.83;99948.53;5054071;28;20059;-65
2022/04/24 11:25:12;;;;;;;5.18;4.20;;;;;;;36.89;18.37;99950.84;5053946;28;20083;-65
2022/04/24 11:27:37;;;;;;;5.18;3.15;;;;;;;37.00;18.82;99949.44;5053647;28;20475;-65
2022/04/24 11:30:14;;;;;;;8.32;3.63;;;;;;;36.63;18.62;99947.19;5053183;28;20056;-65
2022/04/24 11:32:39;;;;;;;3.90;3.53;;;;;;;36.80;18.29;99944.41;5053194;28;20110;-66